Time;durP1;ratioP1;P1;durP2;ratioP2;P2;SDS_P1;SDS_P2;PMS_P1;PMS_P2;Temp;Humidity;BMP_temperature;BMP_pressure;BME280_temperature;BME280_humidity;BME280_pressure;Samples;Min_cycle;Max_cycle;Signal;HPM_P1;HPM_P2
2023/08/24 00:02:21;;;;;;;6.35;3.92;;;;;;;;;;5051246;28;20051;-68
2023/08/24 00:04:48;;;;;;;6.15;4.03;;;;;;;;;;5050803;28;20051;-69
2023/08/24 00:07:14;;;;;;;5.10;3.75;;;;;;;;;;5050860;28;20059;-69
2023/08/24 00:09:41;;;;;;;6.45;3.83;;;;;;;;;;5050573;28;20411;-70
2023/08/24 00:12:08;;;;;;;7.00;4.28;;;;;;;;;;5050784;28;20048;-68
2023/08/24 00:14:34;;;;;;;5.35;3.80;;;;;;;;;;5050418;28;20055;-69
2023/08/24 00:17:02;;;;;;;7.93;4.45;;;;;;;;;;5051491;28;20045;-70
2023/08/24 00:19:29;;;;;;;6.05;4.10;;;;;;;;;;5050650;28;20474;-70
2023/08/24 00:21:55;;;;;;;4.50;3.90;;;;;;;;;;5050765;28;20056;-70
2023/08/24 00:24:22;;;;;;;4.60;4.00;;;;;;;;;;5050178;28;20080;-69
2023/08/24 00:26:48;;;;;;;7.85;4.13;;;;;;;;;;5050459;28;20052;-68
2023/08/24 00:29:15;;;;;;;5.55;3.97;;;;;;;;;;5050306;28;20045;-69
2023/08/24 00:31:42;;;;;;;7.68;4.13;;;;;;;;;;5049883;28;20040;-69
2023/08/24 00:34:10;;;;;;;6.28;4.25;;;;;;;;;;5050064;28;20040;-67
2023/08/24 00:36:37;;;;;;;4.68;4.18;;;;;;;;;;5050308;28;20045;-68
2023/08/24 00:39:04;;;;;;;5.30;4.70;;;;;;;;;;5050035;28;20513;-68
2023/08/24 00:41:31;;;;;;;5.35;3.97;;;;;;;;;;5049646;28;20045;-68
2023/08/24 00:43:58;;;;;;;6.57;4.05;;;;;;;;;;5049999;28;20139;-70
2023/08/24 00:46:26;;;;;;;5.68;4.03;;;;;;;;;;5049864;28;20044;-69
2023/08/24 00:48:56;;;;;;;4.90;4.40;;;;;;;;;;5050085;28;20129;-68
2023/08/24 00:51:25;;;;;;;8.45;4.75;;;;;;;;;;5049111;28;20568;-68
2023/08/24 00:53:52;;;;;;;5.15;4.28;;;;;;;;;;5050106;28;20049;-69
2023/08/24 00:56:19;;;;;;;6.88;4.72;;;;;;;;;;5049406;28;20048;-68
2023/08/24 00:58:48;;;;;;;5.75;4.13;;;;;;;;;;5050094;28;20044;-68
2023/08/24 01:01:14;;;;;;;6.68;4.30;;;;;;;;;;5048886;28;20049;-68
2023/08/24 01:03:41;;;;;;;6.43;4.18;;;;;;;;;;5049999;28;20052;-69
2023/08/24 01:06:07;;;;;;;6.32;4.13;;;;;;;;;;5049625;28;20049;-69
2023/08/24 01:08:36;;;;;;;8.75;4.78;;;;;;;;;;5049958;28;20467;-69
2023/08/24 01:11:09;;;;;;;5.65;4.60;;;;;;;;;;5048882;28;20049;-69
2023/08/24 01:13:45;;;;;;;5.15;4.10;;;;;;;;;;5050152;28;20048;-69
2023/08/24 01:16:17;;;;;;;6.20;4.43;;;;;;;;;;5049637;28;20141;-69
2023/08/24 01:18:44;;;;;;;6.95;4.53;;;;;;;;;;5049979;28;20045;-69
2023/08/24 01:21:13;;;;;;;5.95;4.07;;;;;;;;;;5049477;28;20051;-69
2023/08/24 01:23:45;;;;;;;7.35;4.70;;;;;;;;;;5051096;28;20498;-69
2023/08/24 01:26:17;;;;;;;6.30;4.38;;;;;;;;;;5054084;28;20044;-68
2023/08/24 01:28:45;;;;;;;7.25;4.68;;;;;;;;;;5053610;28;20041;-69
2023/08/24 01:31:14;;;;;;;5.60;4.43;;;;;;;;;;5053052;28;20235;-68
2023/08/24 01:33:41;;;;;;;6.38;4.75;;;;;;;;;;5053243;28;20060;-69
2023/08/24 01:36:09;;;;;;;7.10;4.60;;;;;;;;;;5053855;28;20071;-69
2023/08/24 01:38:36;;;;;;;6.55;4.70;;;;;;;;;;5053149;28;20045;-69
2023/08/24 01:41:11;;;;;;;5.75;4.50;;;;;;;;;;5052952;28;20057;-68
2023/08/24 01:43:41;;;;;;;7.15;4.50;;;;;;;;;;5052985;28;20044;-69
2023/08/24 01:46:08;;;;;;;6.90;4.65;;;;;;;;;;5053156;28;20045;-69
2023/08/24 01:48:37;;;;;;;5.63;4.50;;;;;;;;;;5052867;28;20044;-67
2023/08/24 01:51:04;;;;;;;6.13;4.70;;;;;;;;;;5052526;28;20056;-69
2023/08/24 01:53:32;;;;;;;7.95;4.82;;;;;;;;;;5052733;28;20053;-68
2023/08/24 01:55:59;;;;;;;8.02;5.15;;;;;;;;;;5053560;28;20403;-67
2023/08/24 01:58:25;;;;;;;8.35;4.90;;;;;;;;;;5052448;28;20051;-68
2023/08/24 02:00:53;;;;;;;7.45;4.90;;;;;;;;;;5052305;28;20516;-69
2023/08/24 02:03:20;;;;;;;6.20;5.28;;;;;;;;;;5052427;28;20056;-69
2023/08/24 02:05:46;;;;;;;7.25;5.25;;;;;;;;;;5053146;28;20041;-68
2023/08/24 02:08:13;;;;;;;6.55;4.53;;;;;;;;;;5053321;28;20049;-68
2023/08/24 02:10:39;;;;;;;7.88;4.88;;;;;;;;;;5052039;28;20045;-68
2023/08/24 02:13:06;;;;;;;6.63;5.13;;;;;;;;;;5052884;28;20236;-69
2023/08/24 02:15:32;;;;;;;8.77;5.22;;;;;;;;;;5052171;28;20049;-68
2023/08/24 02:18:00;;;;;;;8.27;5.38;;;;;;;;;;5052471;28;20048;-68
2023/08/24 02:20:27;;;;;;;6.60;4.82;;;;;;;;;;5051542;28;20051;-69
2023/08/24 02:22:53;;;;;;;9.73;4.88;;;;;;;;;;5052725;28;20178;-68
2023/08/24 02:25:20;;;;;;;5.90;4.72;;;;;;;;;;5052601;28;20403;-68
2023/08/24 02:27:47;;;;;;;7.40;4.95;;;;;;;;;;5052325;28;20084;-68
2023/08/24 02:30:14;;;;;;;6.43;4.40;;;;;;;;;;5051504;28;20520;-68
2023/08/24 02:32:41;;;;;;;6.35;4.28;;;;;;;;;;5052680;28;20049;-69
2023/08/24 02:35:09;;;;;;;5.43;4.20;;;;;;;;;;5050659;28;20053;-68
2023/08/24 02:37:36;;;;;;;5.90;4.25;;;;;;;;;;5052452;28;20136;-69
2023/08/24 02:40:03;;;;;;;5.65;3.75;;;;;;;;;;5051398;28;20044;-68
2023/08/24 02:42:31;;;;;;;6.22;3.85;;;;;;;;;;5052773;28;20107;-68
2023/08/24 02:44:58;;;;;;;8.63;3.92;;;;;;;;;;5052409;28;20440;-68
2023/08/24 02:47:24;;;;;;;7.85;4.20;;;;;;;;;;5051752;28;20056;-67
2023/08/24 02:49:51;;;;;;;5.20;3.83;;;;;;;;;;5051764;28;20417;-68
2023/08/24 02:52:19;;;;;;;7.03;3.63;;;;;;;;;;5051612;28;20045;-69
2023/08/24 02:54:46;;;;;;;6.00;3.65;;;;;;;;;;5051898;28;20045;-69
2023/08/24 02:57:12;;;;;;;5.57;3.70;;;;;;;;;;5051835;28;20132;-68
2023/08/24 02:59:39;;;;;;;5.28;3.63;;;;;;;;;;5051332;28;20041;-69
2023/08/24 03:02:05;;;;;;;4.78;3.50;;;;;;;;;;5051434;28;20056;-68
2023/08/24 03:04:33;;;;;;;5.68;3.67;;;;;;;;;;5051679;28;20045;-69
2023/08/24 03:07:00;;;;;;;5.15;3.88;;;;;;;;;;5051175;28;20060;-68
2023/08/24 03:09:28;;;;;;;6.03;4.15;;;;;;;;;;5051424;28;20410;-67
2023/08/24 03:11:55;;;;;;;7.50;4.15;;;;;;;;;;5051286;28;20045;-68
2023/08/24 03:14:21;;;;;;;7.40;4.03;;;;;;;;;;5051576;28;20060;-67
2023/08/24 03:16:48;;;;;;;8.38;4.53;;;;;;;;;;5050921;28;20470;-69
2023/08/24 03:19:14;;;;;;;6.32;4.15;;;;;;;;;;5051392;28;20053;-68
2023/08/24 03:21:41;;;;;;;6.28;4.07;;;;;;;;;;5050901;28;20049;-68
2023/08/24 03:24:08;;;;;;;5.95;4.05;;;;;;;;;;5050720;28;20063;-68
2023/08/24 03:26:35;;;;;;;7.80;4.45;;;;;;;;;;5051431;28;20164;-68
2023/08/24 03:29:02;;;;;;;12.70;4.25;;;;;;;;;;5050841;28;20418;-68
2023/08/24 03:31:29;;;;;;;4.97;4.10;;;;;;;;;;5050567;28;20051;-68
2023/08/24 03:33:56;;;;;;;5.75;4.13;;;;;;;;;;5051048;28;20379;-69
2023/08/24 03:36:22;;;;;;;4.97;3.92;;;;;;;;;;5051015;28;20274;-69
2023/08/24 03:38:49;;;;;;;8.30;3.70;;;;;;;;;;5050463;28;20051;-69
2023/08/24 03:41:15;;;;;;;6.38;3.75;;;;;;;;;;5050604;28;20483;-69
2023/08/24 03:43:43;;;;;;;5.93;4.07;;;;;;;;;;5050836;28;20410;-68
2023/08/24 03:46:10;;;;;;;7.07;3.65;;;;;;;;;;5050969;28;20228;-69
2023/08/24 03:48:36;;;;;;;6.30;3.63;;;;;;;;;;5051170;28;20106;-68
2023/08/24 03:51:03;;;;;;;6.18;3.72;;;;;;;;;;5050574;28;20176;-69
2023/08/24 03:53:30;;;;;;;4.88;4.30;;;;;;;;;;5050701;28;20051;-69
2023/08/24 03:55:56;;;;;;;4.70;3.92;;;;;;;;;;5050969;28;20427;-69
2023/08/24 03:58:23;;;;;;;7.68;4.28;;;;;;;;;;5050753;28;20056;-69
2023/08/24 04:00:51;;;;;;;7.15;3.80;;;;;;;;;;5049927;28;20130;-69
2023/08/24 04:03:18;;;;;;;7.00;4.10;;;;;;;;;;5050833;28;20052;-69
2023/08/24 04:05:44;;;;;;;4.70;3.95;;;;;;;;;;5050450;28;20407;-69
2023/08/24 04:08:11;;;;;;;6.80;4.20;;;;;;;;;;5050631;28;20072;-68
2023/08/24 04:10:38;;;;;;;6.22;4.10;;;;;;;;;;5049877;28;20418;-69
2023/08/24 04:13:05;;;;;;;6.93;4.40;;;;;;;;;;5050504;28;20053;-69
2023/08/24 04:15:31;;;;;;;8.77;4.38;;;;;;;;;;5050036;28;20053;-69
2023/08/24 04:17:59;;;;;;;5.65;4.00;;;;;;;;;;5050353;28;20056;-69
2023/08/24 04:20:26;;;;;;;6.18;4.18;;;;;;;;;;5062256;22;20045;-68
2023/08/24 04:22:54;;;;;;;6.60;3.72;;;;;;;;;;5051259;28;20061;-67
2023/08/24 04:25:21;;;;;;;7.22;4.13;;;;;;;;;;5050562;28;20045;-68
2023/08/24 04:27:47;;;;;;;9.32;4.20;;;;;;;;;;5051928;28;20041;-68
2023/08/24 04:30:15;;;;;;;6.75;3.80;;;;;;;;;;5050856;28;20478;-66
2023/08/24 04:32:41;;;;;;;7.60;4.55;;;;;;;;;;5050761;28;20092;-68
2023/08/24 04:35:10;;;;;;;5.65;3.55;;;;;;;;;;5050957;28;20132;-67
2023/08/24 04:37:38;;;;;;;5.57;3.90;;;;;;;;;;5050896;28;20048;-68
2023/08/24 04:40:07;;;;;;;7.45;4.07;;;;;;;;;;5050994;28;20057;-68
2023/08/24 04:42:33;;;;;;;7.45;3.75;;;;;;;;;;5051081;28;20055;-68
2023/08/24 04:45:01;;;;;;;6.47;3.85;;;;;;;;;;5051280;28;20045;-67
2023/08/24 04:47:28;;;;;;;3.78;3.47;;;;;;;;;;5050600;28;20085;-67
2023/08/24 04:49:55;;;;;;;5.35;4.32;;;;;;;;;;5051313;28;20406;-68
2023/08/24 04:52:25;;;;;;;5.00;4.20;;;;;;;;;;5051637;28;20148;-69
2023/08/24 04:54:52;;;;;;;5.13;3.90;;;;;;;;;;5051393;28;20059;-69
2023/08/24 04:57:19;;;;;;;5.32;4.10;;;;;;;;;;5050118;28;20044;-69
2023/08/24 04:59:45;;;;;;;6.43;4.07;;;;;;;;;;5053066;28;20053;-69
2023/08/24 05:02:12;;;;;;;6.03;4.43;;;;;;;;;;5054150;28;20051;-68
2023/08/24 05:04:38;;;;;;;6.63;4.10;;;;;;;;;;5054687;28;20093;-67
2023/08/24 05:07:05;;;;;;;8.25;5.25;;;;;;;;;;5054376;28;20049;-68
2023/08/24 05:09:33;;;;;;;4.78;3.88;;;;;;;;;;5054114;28;20045;-68
2023/08/24 05:12:00;;;;;;;8.57;4.55;;;;;;;;;;5055169;28;20051;-68
2023/08/24 05:14:26;;;;;;;4.40;3.75;;;;;;;;;;5054098;28;20071;-68
2023/08/24 05:16:53;;;;;;;7.45;4.60;;;;;;;;;;5054426;28;20063;-67
2023/08/24 05:19:19;;;;;;;5.32;3.58;;;;;;;;;;5053867;28;20048;-69
2023/08/24 05:21:47;;;;;;;7.10;4.22;;;;;;;;;;5053779;28;20475;-68
2023/08/24 05:24:13;;;;;;;10.63;4.18;;;;;;;;;;5054147;28;20441;-68
2023/08/24 05:26:41;;;;;;;7.88;4.43;;;;;;;;;;5054419;28;20049;-67
2023/08/24 05:29:07;;;;;;;6.88;3.72;;;;;;;;;;5053686;28;20045;-68
2023/08/24 05:31:34;;;;;;;9.27;4.40;;;;;;;;;;5054112;28;20056;-67
2023/08/24 05:34:01;;;;;;;8.07;4.40;;;;;;;;;;5053800;28;20055;-68
2023/08/24 05:36:27;;;;;;;7.30;4.35;;;;;;;;;;5054403;28;20041;-68
2023/08/24 05:38:56;;;;;;;5.35;4.28;;;;;;;;;;5053902;28;20049;-69
2023/08/24 05:41:23;;;;;;;6.60;4.55;;;;;;;;;;5054539;28;20107;-68
2023/08/24 05:43:52;;;;;;;7.55;4.45;;;;;;;;;;5054194;28;20063;-68
2023/08/24 05:46:19;;;;;;;9.18;4.43;;;;;;;;;;5054804;28;20049;-69
2023/08/24 05:48:46;;;;;;;9.23;4.50;;;;;;;;;;5054384;28;20129;-68
2023/08/24 05:51:12;;;;;;;8.60;4.70;;;;;;;;;;5053601;28;20045;-67
2023/08/24 05:53:40;;;;;;;6.05;4.25;;;;;;;;;;5054524;28;20051;-68
2023/08/24 05:56:07;;;;;;;5.35;4.57;;;;;;;;;;5053736;28;20048;-68
2023/08/24 05:58:33;;;;;;;5.35;4.03;;;;;;;;;;5053740;28;20075;-69
2023/08/24 06:01:02;;;;;;;5.63;3.90;;;;;;;;;;5053226;28;20045;-68
2023/08/24 06:03:28;;;;;;;5.55;3.75;;;;;;;;;;5053593;28;20073;-67
2023/08/24 06:06:01;;;;;;;8.35;4.03;;;;;;;;;;5053098;28;20051;-69
2023/08/24 06:08:28;;;;;;;7.07;3.58;;;;;;;;;;5053842;28;20045;-69
2023/08/24 06:10:55;;;;;;;8.65;4.35;;;;;;;;;;5053263;28;20048;-68
2023/08/24 06:13:22;;;;;;;6.05;3.80;;;;;;;;;;5054326;28;20045;-68
2023/08/24 06:15:49;;;;;;;12.85;4.53;;;;;;;;;;5053507;28;20391;-66
2023/08/24 06:18:17;;;;;;;7.28;3.95;;;;;;;;;;5054022;28;20045;-69
2023/08/24 06:20:43;;;;;;;10.90;4.57;;;;;;;;;;5053010;28;20057;-69
2023/08/24 06:23:14;;;;;;;9.05;5.05;;;;;;;;;;5054415;28;20453;-67
2023/08/24 06:25:40;;;;;;;9.75;5.45;;;;;;;;;;5053646;28;20075;-67
2023/08/24 06:28:08;;;;;;;10.18;4.93;;;;;;;;;;5053897;28;20044;-68
2023/08/24 06:30:39;;;;;;;8.43;5.07;;;;;;;;;;5053003;28;20052;-69
2023/08/24 06:33:06;;;;;;;9.00;4.82;;;;;;;;;;5054650;28;20049;-68
2023/08/24 06:35:35;;;;;;;7.57;4.72;;;;;;;;;;5053843;28;20052;-67
2023/08/24 06:38:02;;;;;;;7.32;4.60;;;;;;;;;;5053438;28;20206;-69
2023/08/24 06:40:30;;;;;;;8.48;4.75;;;;;;;;;;5053306;28;20053;-69
2023/08/24 06:42:57;;;;;;;6.50;4.38;;;;;;;;;;5052995;28;20084;-69
2023/08/24 06:45:24;;;;;;;6.38;4.07;;;;;;;;;;5054041;28;20044;-68
2023/08/24 06:47:52;;;;;;;6.43;4.35;;;;;;;;;;5053266;28;20059;-69
2023/08/24 06:50:20;;;;;;;7.55;4.38;;;;;;;;;;5052915;28;20083;-69
2023/08/24 06:52:47;;;;;;;6.03;4.22;;;;;;;;;;5054761;28;20491;-69
2023/08/24 06:55:14;;;;;;;4.75;4.15;;;;;;;;;;5055573;28;20049;-67
2023/08/24 06:57:41;;;;;;;6.57;4.20;;;;;;;;;;5053650;28;20045;-69
2023/08/24 07:00:09;;;;;;;6.43;4.22;;;;;;;;;;5052142;28;20312;-67
2023/08/24 07:02:36;;;;;;;8.10;4.68;;;;;;;;;;5052241;28;20426;-69
2023/08/24 07:05:05;;;;;;;8.73;4.35;;;;;;;;;;5052080;28;20060;-68
2023/08/24 07:07:32;;;;;;;5.00;3.72;;;;;;;;;;5053529;28;20430;-69
2023/08/24 07:10:00;;;;;;;6.20;3.97;;;;;;;;;;5052614;28;20041;-69
2023/08/24 07:12:27;;;;;;;9.55;5.07;;;;;;;;;;5053426;28;20478;-68
2023/08/24 07:14:53;;;;;;;5.70;4.18;;;;;;;;;;5052291;28;20048;-69
2023/08/24 07:17:20;;;;;;;9.02;4.47;;;;;;;;;;5053106;28;20545;-68
2023/08/24 07:19:47;;;;;;;7.28;4.50;;;;;;;;;;5051795;28;20060;-68
2023/08/24 07:22:14;;;;;;;10.55;5.85;;;;;;;;;;5052204;28;20059;-68
2023/08/24 07:24:41;;;;;;;12.27;6.28;;;;;;;;;;5052704;28;20044;-69
2023/08/24 07:27:10;;;;;;;9.75;5.72;;;;;;;;;;5052292;28;20051;-68
2023/08/24 07:29:37;;;;;;;10.60;5.68;;;;;;;;;;5051582;28;20060;-67
2023/08/24 07:32:04;;;;;;;7.95;5.13;;;;;;;;;;5052535;28;20441;-68
2023/08/24 07:34:31;;;;;;;7.07;4.80;;;;;;;;;;5052033;28;20556;-68
2023/08/24 07:36:58;;;;;;;9.10;5.47;;;;;;;;;;5052495;28;20047;-69
2023/08/24 07:39:25;;;;;;;10.98;5.85;;;;;;;;;;5052163;28;20052;-67
2023/08/24 07:41:52;;;;;;;7.78;5.70;;;;;;;;;;5052110;28;20482;-68
2023/08/24 07:44:22;;;;;;;8.45;5.72;;;;;;;;;;5052467;28;20051;-67
2023/08/24 07:46:49;;;;;;;8.65;6.05;;;;;;;;;;5051610;28;20532;-68
2023/08/24 07:49:15;;;;;;;10.20;6.40;;;;;;;;;;5052282;28;20445;-68
2023/08/24 07:51:43;;;;;;;8.30;6.20;;;;;;;;;;5051372;28;20044;-68
2023/08/24 07:54:10;;;;;;;6.40;5.72;;;;;;;;;;5051424;28;20052;-68
2023/08/24 07:56:37;;;;;;;7.05;5.65;;;;;;;;;;5051353;28;20088;-68
2023/08/24 07:59:04;;;;;;;9.18;6.53;;;;;;;;;;5052488;28;20441;-68
2023/08/24 08:01:32;;;;;;;6.63;5.05;;;;;;;;;;5050426;28;20443;-69
2023/08/24 08:04:00;;;;;;;9.30;5.25;;;;;;;;;;5051995;28;20052;-69
2023/08/24 08:06:27;;;;;;;5.78;5.18;;;;;;;;;;5051640;28;20091;-69
2023/08/24 08:08:56;;;;;;;8.10;5.32;;;;;;;;;;5052026;28;20049;-68
2023/08/24 08:11:23;;;;;;;11.52;5.93;;;;;;;;;;5050283;28;20053;-69
2023/08/24 08:13:49;;;;;;;6.05;5.28;;;;;;;;;;5045183;28;20041;-69
2023/08/24 08:16:16;;;;;;;8.52;5.68;;;;;;;;;;5031278;28;20050;-68
2023/08/24 08:18:44;;;;;;;7.95;5.55;;;;;;;;;;5031515;28;20049;-68
2023/08/24 08:21:12;;;;;;;7.57;5.47;;;;;;;;;;5029912;28;20434;-69
2023/08/24 08:23:39;;;;;;;8.90;5.47;;;;;;;;;;5030332;28;20503;-69
2023/08/24 08:26:06;;;;;;;8.93;5.15;;;;;;;;;;5030688;28;20345;-69
2023/08/24 08:28:34;;;;;;;7.03;5.53;;;;;;;;;;5029565;28;20045;-68
2023/08/24 08:31:01;;;;;;;9.25;5.35;;;;;;;;;;5030004;28;20120;-69
2023/08/24 08:33:28;;;;;;;7.57;4.78;;;;;;;;;;5030160;28;20487;-68
2023/08/24 08:35:56;;;;;;;7.60;5.30;;;;;;;;;;5030045;28;20053;-69
2023/08/24 08:38:25;;;;;;;7.15;4.70;;;;;;;;;;5029649;28;20045;-69
2023/08/24 08:40:53;;;;;;;7.78;5.03;;;;;;;;;;5038704;28;20036;-68
2023/08/24 08:43:22;;;;;;;5.63;4.70;;;;;;;;;;5047366;28;20060;-69
2023/08/24 08:45:50;;;;;;;8.00;4.43;;;;;;;;;;5049865;28;20114;-69
2023/08/24 08:48:17;;;;;;;8.70;5.47;;;;;;;;;;5049617;28;20049;-69
2023/08/24 08:50:43;;;;;;;7.80;4.75;;;;;;;;;;5048636;28;20056;-68
2023/08/24 08:53:11;;;;;;;10.30;4.80;;;;;;;;;;5049777;28;20410;-69
2023/08/24 08:55:38;;;;;;;8.15;4.85;;;;;;;;;;5049455;28;20045;-68
2023/08/24 08:58:07;;;;;;;6.05;4.65;;;;;;;;;;5048889;28;20087;-70
2023/08/24 09:00:34;;;;;;;8.80;4.40;;;;;;;;;;5048489;28;20056;-68
2023/08/24 09:03:02;;;;;;;6.03;4.00;;;;;;;;;;5049531;28;20509;-69
2023/08/24 09:05:30;;;;;;;5.85;3.92;;;;;;;;;;5048703;28;20049;-69
2023/08/24 09:07:59;;;;;;;8.10;3.97;;;;;;;;;;5048898;28;20132;-68
2023/08/24 09:10:27;;;;;;;11.25;4.32;;;;;;;;;;5048457;28;20106;-67
2023/08/24 09:12:54;;;;;;;3.70;3.40;;;;;;;;;;5049421;28;20045;-67
2023/08/24 09:15:27;;;;;;;6.15;3.75;;;;;;;;;;5049045;28;20045;-69
2023/08/24 09:17:56;;;;;;;7.50;4.07;;;;;;;;;;5048927;28;20041;-67
2023/08/24 09:20:22;;;;;;;5.43;3.72;;;;;;;;;;5011617;28;1085017;-69
2023/08/24 09:22:49;;;;;;;6.68;4.13;;;;;;;;;;5049644;28;20422;-69
2023/08/24 09:25:16;;;;;;;3.90;3.10;;;;;;;;;;5049828;28;20410;-68
2023/08/24 09:27:44;;;;;;;6.07;3.38;;;;;;;;;;5049469;28;20051;-67
2023/08/24 09:30:11;;;;;;;7.03;3.63;;;;;;;;;;5046708;28;20041;-66
2023/08/24 09:32:38;;;;;;;7.25;3.10;;;;;;;;;;5048840;28;20183;-67
2023/08/24 09:35:08;;;;;;;5.60;3.22;;;;;;;;;;5048645;28;20045;-66
2023/08/24 09:37:36;;;;;;;6.35;3.20;;;;;;;;;;5049235;28;20055;-67
2023/08/24 09:40:07;;;;;;;6.03;3.22;;;;;;;;;;5049014;28;20149;-67
2023/08/24 09:42:38;;;;;;;4.70;2.80;;;;;;;;;;5049439;28;20136;-68
2023/08/24 09:45:09;;;;;;;4.63;3.40;;;;;;;;;;5050889;28;20060;-68
2023/08/24 09:47:36;;;;;;;4.50;2.97;;;;;;;;;;5053235;28;20524;-68
2023/08/24 09:50:03;;;;;;;7.43;3.03;;;;;;;;;;5052341;28;20049;-66
2023/08/24 09:52:32;;;;;;;6.47;3.03;;;;;;;;;;5053276;28;20082;-67
2023/08/24 09:55:04;;;;;;;4.63;3.15;;;;;;;;;;5052777;28;20055;-68
2023/08/24 09:57:31;;;;;;;5.82;3.05;;;;;;;;;;5053118;28;20078;-67
2023/08/24 09:59:58;;;;;;;4.32;2.70;;;;;;;;;;5051934;28;20052;-67
2023/08/24 10:02:30;;;;;;;4.60;3.00;;;;;;;;;;5053108;28;20152;-68
2023/08/24 10:04:58;;;;;;;4.90;2.80;;;;;;;;;;5049428;28;20053;-68
2023/08/24 10:07:26;;;;;;;4.63;2.92;;;;;;;;;;5053051;28;20072;-68
2023/08/24 10:09:58;;;;;;;7.43;2.72;;;;;;;;;;5051876;28;20049;-67
2023/08/24 10:12:29;;;;;;;4.18;2.88;;;;;;;;;;5052613;28;20437;-68
2023/08/24 10:15:01;;;;;;;3.88;2.80;;;;;;;;;;5052403;28;20312;-68
2023/08/24 10:17:30;;;;;;;5.28;3.10;;;;;;;;;;5052663;28;20487;-67
2023/08/24 10:20:00;;;;;;;3.30;2.80;;;;;;;;;;5063070;22;20468;-66
2023/08/24 10:22:28;;;;;;;5.47;3.15;;;;;;;;;;5051989;28;20102;-67
2023/08/24 10:24:55;;;;;;;4.88;2.97;;;;;;;;;;5044847;28;20068;-67
2023/08/24 10:27:24;;;;;;;4.22;3.08;;;;;;;;;;5048693;28;20140;-67
2023/08/24 10:29:50;;;;;;;2.78;2.42;;;;;;;;;;5064852;28;20048;-67
2023/08/24 10:32:18;;;;;;;6.30;2.97;;;;;;;;;;5071745;28;20044;-66
2023/08/24 10:34:46;;;;;;;5.05;3.15;;;;;;;;;;5071816;28;20045;-67
2023/08/24 10:37:13;;;;;;;4.50;2.60;;;;;;;;;;5071743;28;20048;-67
2023/08/24 10:39:45;;;;;;;5.82;3.08;;;;;;;;;;5071582;28;20058;-67
2023/08/24 10:42:12;;;;;;;7.70;3.08;;;;;;;;;;5071696;28;20076;-67
2023/08/24 10:44:40;;;;;;;5.07;3.00;;;;;;;;;;5071653;28;20058;-67
2023/08/24 10:47:19;;;;;;;5.45;3.13;;;;;;;;;;5072169;28;20391;-66
2023/08/24 10:49:59;;;;;;;4.85;2.90;;;;;;;;;;5070920;28;20045;-66
2023/08/24 10:52:27;;;;;;;5.65;3.20;;;;;;;;;;5072190;28;20044;-67
2023/08/24 10:54:55;;;;;;;6.15;3.30;;;;;;;;;;5071760;28;20059;-67
2023/08/24 10:57:23;;;;;;;5.97;3.30;;;;;;;;;;5070865;28;20044;-67
2023/08/24 11:00:01;;;;;;;6.40;3.60;;;;;;;;;;5070782;28;20154;-67
2023/08/24 11:02:27;;;;;;;5.90;3.15;;;;;;;;;;5072088;28;20522;-67
2023/08/24 11:05:18;;;;;;;5.75;3.63;;;;;;;;;;5071213;28;20048;-66
2023/08/24 11:07:56;;;;;;;6.88;3.83;;;;;;;;;;5072325;28;20045;-67
2023/08/24 11:10:24;;;;;;;5.82;3.63;;;;;;;;;;5071420;28;20052;-66
2023/08/24 11:13:11;;;;;;;8.15;3.40;;;;;;;;;;5071766;28;20041;-66
2023/08/24 11:15:40;;;;;;;6.28;3.90;;;;;;;;;;5071089;28;20476;-66
2023/08/24 11:18:13;;;;;;;6.60;3.80;;;;;;;;;;5071552;28;20048;-66
2023/08/24 11:20:44;;;;;;;3.92;3.53;;;;;;;;;;5070308;28;20051;-66
2023/08/24 11:23:11;;;;;;;4.10;3.73;;;;;;;;;;5071657;28;20045;-66
2023/08/24 11:25:38;;;;;;;4.28;3.72;;;;;;;;;;5070582;28;20281;-66
2023/08/24 11:28:05;;;;;;;5.13;3.97;;;;;;;;;;5071972;28;20409;-65
2023/08/24 11:30:32;;;;;;;5.20;3.70;;;;;;;;;;5070650;28;20045;-65
2023/08/24 11:32:59;;;;;;;6.35;3.65;;;;;;;;;;5068967;28;20048;-65
2023/08/24 11:35:26;;;;;;;4.40;3.70;;;;;;;;;;5070041;28;20131;-66
2023/08/24 11:37:54;;;;;;;4.18;3.55;;;;;;;;;;5070798;28;20413;-66
2023/08/24 11:40:26;;;;;;;6.90;3.75;;;;;;;;;;5069984;28;20055;-66
2023/08/24 11:42:54;;;;;;;5.38;3.92;;;;;;;;;;5071036;28;20095;-66
2023/08/24 11:45:21;;;;;;;4.20;3.80;;;;;;;;;;5070399;28;20490;-67
2023/08/24 11:47:48;;;;;;;5.78;3.70;;;;;;;;;;5070431;28;20048;-67
2023/08/24 11:50:15;;;;;;;6.35;4.10;;;;;;;;;;5070179;28;20529;-67
2023/08/24 11:52:41;;;;;;;5.75;3.90;;;;;;;;;;5069758;28;20045;-67
2023/08/24 11:55:10;;;;;;;4.68;3.83;;;;;;;;;;5070787;28;20079;-67
2023/08/24 11:57:39;;;;;;;5.47;4.03;;;;;;;;;;5065849;28;20539;-67
2023/08/24 12:00:08;;;;;;;4.57;3.70;;;;;;;;;;5050407;28;20052;-67
2023/08/24 12:02:35;;;;;;;5.82;3.97;;;;;;;;;;5050756;28;20053;-68
2023/08/24 12:05:06;;;;;;;6.03;3.53;;;;;;;;;;5050470;28;20053;-65
2023/08/24 12:07:33;;;;;;;5.47;3.90;;;;;;;;;;5050453;28;20119;-66
2023/08/24 12:10:01;;;;;;;5.60;3.97;;;;;;;;;;5050059;28;20048;-65
2023/08/24 12:12:29;;;;;;;5.93;3.53;;;;;;;;;;5050764;28;20045;-65
2023/08/24 12:14:57;;;;;;;4.38;3.50;;;;;;;;;;5050424;28;20482;-65
2023/08/24 12:17:24;;;;;;;4.93;3.17;;;;;;;;;;5050441;28;20091;-65
2023/08/24 12:19:59;;;;;;;4.88;3.20;;;;;;;;;;5054520;28;20467;-66
2023/08/24 12:22:26;;;;;;;4.05;3.45;;;;;;;;;;5070322;28;20079;-66
2023/08/24 12:24:52;;;;;;;3.47;3.10;;;;;;;;;;5069735;28;20041;-66
2023/08/24 12:27:19;;;;;;;6.57;3.10;;;;;;;;;;5070189;28;20323;-66
2023/08/24 12:29:48;;;;;;;4.13;3.40;;;;;;;;;;5068854;28;20052;-66
2023/08/24 12:32:16;;;;;;;4.40;2.55;;;;;;;;;;5069782;28;20070;-66
2023/08/24 12:34:42;;;;;;;4.57;2.92;;;;;;;;;;5069641;28;20494;-66
2023/08/24 12:37:09;;;;;;;3.63;2.90;;;;;;;;;;5069463;28;20127;-66
2023/08/24 12:39:37;;;;;;;3.83;2.97;;;;;;;;;;5062663;28;20128;-66
2023/08/24 12:42:04;;;;;;;4.18;3.28;;;;;;;;;;5060470;28;20365;-66
2023/08/24 12:44:30;;;;;;;3.20;2.90;;;;;;;;;;5070164;28;20508;-66
2023/08/24 12:46:59;;;;;;;5.47;2.97;;;;;;;;;;5069275;28;20056;-66
2023/08/24 12:49:25;;;;;;;3.50;2.40;;;;;;;;;;5070066;28;20055;-66
2023/08/24 12:51:52;;;;;;;6.05;3.30;;;;;;;;;;5068994;28;20049;-66
2023/08/24 12:54:19;;;;;;;3.53;2.80;;;;;;;;;;5070179;28;20044;-66
2023/08/24 12:56:45;;;;;;;3.90;2.20;;;;;;;;;;5069909;28;20087;-66
2023/08/24 12:59:12;;;;;;;3.13;2.60;;;;;;;;;;5069816;28;20486;-66
2023/08/24 13:01:39;;;;;;;4.72;2.95;;;;;;;;;;5062254;28;20519;-66
2023/08/24 13:04:06;;;;;;;3.72;2.70;;;;;;;;;;5049805;28;20423;-66
2023/08/24 13:06:34;;;;;;;4.70;2.63;;;;;;;;;;5049336;28;20049;-66
2023/08/24 13:09:00;;;;;;;5.13;2.72;;;;;;;;;;5049635;28;20049;-66
2023/08/24 13:11:27;;;;;;;7.93;2.65;;;;;;;;;;5049495;28;20057;-66
2023/08/24 13:13:53;;;;;;;3.45;2.50;;;;;;;;;;5049032;28;20299;-66
2023/08/24 13:16:20;;;;;;;4.00;2.70;;;;;;;;;;5049398;28;20076;-66
2023/08/24 13:18:46;;;;;;;4.68;2.97;;;;;;;;;;5049198;28;20381;-66
2023/08/24 13:21:14;;;;;;;2.85;2.17;;;;;;;;;;5052328;28;20457;-66
2023/08/24 13:23:41;;;;;;;5.07;2.22;;;;;;;;;;5053427;28;20051;-66
2023/08/24 13:26:18;;;;;;;5.15;2.92;;;;;;;;;;5053541;28;20052;-66
2023/08/24 13:28:45;;;;;;;4.05;2.78;;;;;;;;;;5052976;28;20095;-66
2023/08/24 13:31:11;;;;;;;4.03;2.50;;;;;;;;;;5052743;28;20144;-66
2023/08/24 13:33:38;;;;;;;3.35;2.60;;;;;;;;;;5053344;28;20410;-66
2023/08/24 13:36:05;;;;;;;5.28;2.60;;;;;;;;;;5053335;28;20045;-66
2023/08/24 13:38:33;;;;;;;2.75;2.42;;;;;;;;;;5053621;28;20049;-66
2023/08/24 13:40:59;;;;;;;2.75;2.13;;;;;;;;;;5057239;28;20041;-66
2023/08/24 13:43:26;;;;;;;3.70;2.50;;;;;;;;;;5073933;28;20522;-66
2023/08/24 13:45:52;;;;;;;3.70;2.60;;;;;;;;;;5073077;28;20486;-66
2023/08/24 13:48:19;;;;;;;2.50;2.30;;;;;;;;;;5073833;28;20058;-66
2023/08/24 13:50:51;;;;;;;3.85;2.55;;;;;;;;;;5072378;28;20045;-66
2023/08/24 13:53:17;;;;;;;4.70;2.97;;;;;;;;;;5073152;28;20494;-66
2023/08/24 13:55:45;;;;;;;5.15;2.40;;;;;;;;;;5072198;28;20513;-66
2023/08/24 13:58:12;;;;;;;4.50;2.90;;;;;;;;;;5073208;28;20045;-66
2023/08/24 14:00:39;;;;;;;5.05;2.65;;;;;;;;;;5072167;28;20515;-66
2023/08/24 14:03:04;;;;;;;3.00;2.60;;;;;;;;;;5073325;28;20047;-66
2023/08/24 14:05:31;;;;;;;7.38;3.17;;;;;;;;;;5073055;28;20052;-66
2023/08/24 14:07:57;;;;;;;6.25;2.88;;;;;;;;;;5065528;28;20644;-66
2023/08/24 14:10:24;;;;;;;7.20;3.38;;;;;;;;;;5057847;28;20045;-66
2023/08/24 14:12:52;;;;;;;4.70;2.60;;;;;;;;;;5072584;28;20044;-67
2023/08/24 14:15:18;;;;;;;4.63;2.67;;;;;;;;;;5072421;28;20050;-66
2023/08/24 14:17:45;;;;;;;5.22;2.58;;;;;;;;;;5072352;28;20136;-66
2023/08/24 14:20:14;;;;;;;7.28;3.35;;;;;;;;;;5072183;28;20395;-66
2023/08/24 14:22:40;;;;;;;4.43;3.03;;;;;;;;;;5071781;28;20135;-66
2023/08/24 14:25:08;;;;;;;8.65;2.58;;;;;;;;;;5072159;28;20049;-66
2023/08/24 14:27:34;;;;;;;3.53;2.60;;;;;;;;;;5072352;28;20044;-66
2023/08/24 14:30:02;;;;;;;4.93;2.80;;;;;;;;;;5071845;28;20056;-66
2023/08/24 14:32:29;;;;;;;24.73;5.05;;;;;;;;;;5071935;28;20048;-67
2023/08/24 14:34:56;;;;;;;9.50;5.00;;;;;;;;;;5072281;28;20508;-68
2023/08/24 14:37:23;;;;;;;9.23;4.70;;;;;;;;;;5071547;28;20078;-68
2023/08/24 14:39:49;;;;;;;9.85;5.10;;;;;;;;;;5071813;28;20063;-67
2023/08/24 14:42:16;;;;;;;9.30;5.28;;;;;;;;;;5072001;28;20045;-67
2023/08/24 14:44:43;;;;;;;10.80;6.60;;;;;;;;;;5071910;28;20048;-67
2023/08/24 14:47:10;;;;;;;10.63;6.93;;;;;;;;;;5072077;28;20136;-67